sensor_id;sensor_type;location;lat;lon;timestamp;temperature;humidity
46816;DHT22;32787;53.316;8.670;2023-04-24T00:00:57;10.90;92.60
46816;DHT22;32787;53.316;8.670;2023-04-24T00:03:24;11.00;92.90
46816;DHT22;32787;53.316;8.670;2023-04-24T00:05:50;11.10;92.60
46816;DHT22;32787;53.316;8.670;2023-04-24T00:08:16;11.00;92.40
46816;DHT22;32787;53.316;8.670;2023-04-24T00:10:42;11.10;92.20
46816;DHT22;32787;53.316;8.670;2023-04-24T00:13:08;11.00;92.40
46816;DHT22;32787;53.316;8.670;2023-04-24T00:15:34;11.00;92.50
46816;DHT22;32787;53.316;8.670;2023-04-24T00:17:59;11.00;92.60
46816;DHT22;32787;53.316;8.670;2023-04-24T00:20:27;11.10;92.40
46816;DHT22;32787;53.316;8.670;2023-04-24T00:22:55;11.10;92.30
46816;DHT22;32787;53.316;8.670;2023-04-24T00:25:20;11.30;92.20
46816;DHT22;32787;53.316;8.670;2023-04-24T00:27:46;11.30;92.20
46816;DHT22;32787;53.316;8.670;2023-04-24T00:30:12;11.30;91.60
46816;DHT22;32787;53.316;8.670;2023-04-24T00:32:37;11.20;91.50
46816;DHT22;32787;53.316;8.670;2023-04-24T00:35:03;11.30;91.50
46816;DHT22;32787;53.316;8.670;2023-04-24T00:37:29;11.30;91.40
46816;DHT22;32787;53.316;8.670;2023-04-24T00:39:55;11.30;91.20
46816;DHT22;32787;53.316;8.670;2023-04-24T00:42:20;11.20;90.80
46816;DHT22;32787;53.316;8.670;2023-04-24T00:44:46;11.30;90.90
46816;DHT22;32787;53.316;8.670;2023-04-24T00:47:12;11.30;90.80
46816;DHT22;32787;53.316;8.670;2023-04-24T00:49:38;11.10;90.40
46816;DHT22;32787;53.316;8.670;2023-04-24T00:52:04;11.20;90.40
46816;DHT22;32787;53.316;8.670;2023-04-24T00:54:33;11.20;90.50
46816;DHT22;32787;53.316;8.670;2023-04-24T00:56:58;11.20;90.00
46816;DHT22;32787;53.316;8.670;2023-04-24T00:59:24;11.20;89.90
46816;DHT22;32787;53.316;8.670;2023-04-24T01:01:50;11.20;89.70
46816;DHT22;32787;53.316;8.670;2023-04-24T01:04:17;11.20;89.30
46816;DHT22;32787;53.316;8.670;2023-04-24T01:06:44;11.20;89.10
46816;DHT22;32787;53.316;8.670;2023-04-24T01:09:11;11.10;89.00
46816;DHT22;32787;53.316;8.670;2023-04-24T01:11:37;11.00;88.90
46816;DHT22;32787;53.316;8.670;2023-04-24T01:14:03;11.00;89.00
46816;DHT22;32787;53.316;8.670;2023-04-24T01:16:29;11.10;88.90
46816;DHT22;32787;53.316;8.670;2023-04-24T01:18:55;10.90;88.30
46816;DHT22;32787;53.316;8.670;2023-04-24T01:21:21;10.90;88.30
46816;DHT22;32787;53.316;8.670;2023-04-24T01:23:49;10.80;87.80
46816;DHT22;32787;53.316;8.670;2023-04-24T01:26:16;10.80;87.90
46816;DHT22;32787;53.316;8.670;2023-04-24T01:28:42;10.80;87.80
46816;DHT22;32787;53.316;8.670;2023-04-24T01:31:08;10.80;87.80
46816;DHT22;32787;53.316;8.670;2023-04-24T01:33:34;10.80;87.80
46816;DHT22;32787;53.316;8.670;2023-04-24T01:36:00;10.80;87.40
46816;DHT22;32787;53.316;8.670;2023-04-24T01:38:26;10.70;87.50
46816;DHT22;32787;53.316;8.670;2023-04-24T01:40:52;10.80;87.20
46816;DHT22;32787;53.316;8.670;2023-04-24T01:43:18;10.90;87.10
46816;DHT22;32787;53.316;8.670;2023-04-24T01:45:44;10.80;86.90
46816;DHT22;32787;53.316;8.670;2023-04-24T01:48:11;10.80;86.80
46816;DHT22;32787;53.316;8.670;2023-04-24T01:50:36;10.80;87.10
46816;DHT22;32787;53.316;8.670;2023-04-24T01:53:02;10.80;87.00
46816;DHT22;32787;53.316;8.670;2023-04-24T01:55:27;10.70;86.90
46816;DHT22;32787;53.316;8.670;2023-04-24T01:57:55;10.80;86.90
46816;DHT22;32787;53.316;8.670;2023-04-24T02:00:22;10.90;86.50
46816;DHT22;32787;53.316;8.670;2023-04-24T02:02:47;10.90;86.60
46816;DHT22;32787;53.316;8.670;2023-04-24T02:05:13;10.80;86.70
46816;DHT22;32787;53.316;8.670;2023-04-24T02:07:38;10.80;87.10
46816;DHT22;32787;53.316;8.670;2023-04-24T02:10:05;10.90;86.70
46816;DHT22;32787;53.316;8.670;2023-04-24T02:12:31;10.80;86.60
46816;DHT22;32787;53.316;8.670;2023-04-24T02:14:57;10.80;86.70
46816;DHT22;32787;53.316;8.670;2023-04-24T02:17:22;10.80;86.50
46816;DHT22;32787;53.316;8.670;2023-04-24T02:19:48;10.80;86.30
46816;DHT22;32787;53.316;8.670;2023-04-24T02:22:14;10.80;86.60
46816;DHT22;32787;53.316;8.670;2023-04-24T02:24:39;10.90;86.40
46816;DHT22;32787;53.316;8.670;2023-04-24T02:27:05;10.80;86.60
46816;DHT22;32787;53.316;8.670;2023-04-24T02:29:31;10.80;86.60
46816;DHT22;32787;53.316;8.670;2023-04-24T02:31:57;10.80;86.50
46816;DHT22;32787;53.316;8.670;2023-04-24T02:34:23;10.80;86.30
46816;DHT22;32787;53.316;8.670;2023-04-24T02:36:48;10.80;85.90
46816;DHT22;32787;53.316;8.670;2023-04-24T02:39:14;10.80;86.20
46816;DHT22;32787;53.316;8.670;2023-04-24T02:41:42;10.80;85.70
46816;DHT22;32787;53.316;8.670;2023-04-24T02:44:08;10.80;85.60
46816;DHT22;32787;53.316;8.670;2023-04-24T02:46:33;10.80;85.70
46816;DHT22;32787;53.316;8.670;2023-04-24T02:48:59;10.80;85.60
46816;DHT22;32787;53.316;8.670;2023-04-24T02:51:24;10.90;85.40
46816;DHT22;32787;53.316;8.670;2023-04-24T02:53:50;10.90;85.20
46816;DHT22;32787;53.316;8.670;2023-04-24T02:56:16;10.90;85.30
46816;DHT22;32787;53.316;8.670;2023-04-24T02:58:41;10.80;85.50
46816;DHT22;32787;53.316;8.670;2023-04-24T03:01:08;10.90;85.10
46816;DHT22;32787;53.316;8.670;2023-04-24T03:03:35;10.90;84.80
46816;DHT22;32787;53.316;8.670;2023-04-24T03:06:01;10.80;84.90
46816;DHT22;32787;53.316;8.670;2023-04-24T03:08:27;10.80;85.30
46816;DHT22;32787;53.316;8.670;2023-04-24T03:10:53;10.80;84.80
46816;DHT22;32787;53.316;8.670;2023-04-24T03:13:18;10.80;84.80
46816;DHT22;32787;53.316;8.670;2023-04-24T03:15:44;10.90;84.80
46816;DHT22;32787;53.316;8.670;2023-04-24T03:18:10;10.90;84.80
46816;DHT22;32787;53.316;8.670;2023-04-24T03:20:35;10.80;84.90
46816;DHT22;32787;53.316;8.670;2023-04-24T03:23:03;10.80;85.20
46816;DHT22;32787;53.316;8.670;2023-04-24T03:25:28;10.80;85.40
46816;DHT22;32787;53.316;8.670;2023-04-24T03:27:54;10.80;85.30
46816;DHT22;32787;53.316;8.670;2023-04-24T03:30:20;10.70;85.60
46816;DHT22;32787;53.316;8.670;2023-04-24T03:32:46;10.80;85.60
46816;DHT22;32787;53.316;8.670;2023-04-24T03:35:11;10.70;85.70
46816;DHT22;32787;53.316;8.670;2023-04-24T03:37:37;10.60;85.40
46816;DHT22;32787;53.316;8.670;2023-04-24T03:40:03;10.60;85.90
46816;DHT22;32787;53.316;8.670;2023-04-24T03:42:29;10.60;85.90
46816;DHT22;32787;53.316;8.670;2023-04-24T03:44:54;10.60;85.80
46816;DHT22;32787;53.316;8.670;2023-04-24T03:47:20;10.60;86.10
46816;DHT22;32787;53.316;8.670;2023-04-24T03:49:45;10.60;86.00
46816;DHT22;32787;53.316;8.670;2023-04-24T03:52:11;10.70;85.80
46816;DHT22;32787;53.316;8.670;2023-04-24T03:54:36;10.70;85.80
46816;DHT22;32787;53.316;8.670;2023-04-24T03:57:02;10.60;86.00
46816;DHT22;32787;53.316;8.670;2023-04-24T03:59:30;10.60;85.50
46816;DHT22;32787;53.316;8.670;2023-04-24T04:01:56;10.60;85.70
46816;DHT22;32787;53.316;8.670;2023-04-24T04:04:21;10.60;85.70
46816;DHT22;32787;53.316;8.670;2023-04-24T04:06:47;10.60;86.00
46816;DHT22;32787;53.316;8.670;2023-04-24T04:09:13;10.60;86.00
46816;DHT22;32787;53.316;8.670;2023-04-24T04:11:39;10.60;85.80
46816;DHT22;32787;53.316;8.670;2023-04-24T04:14:04;10.60;85.60
46816;DHT22;32787;53.316;8.670;2023-04-24T04:16:30;10.70;85.30
46816;DHT22;32787;53.316;8.670;2023-04-24T04:18:56;10.60;85.50
46816;DHT22;32787;53.316;8.670;2023-04-24T04:21:22;10.70;85.50
46816;DHT22;32787;53.316;8.670;2023-04-24T04:23:47;10.70;85.30
46816;DHT22;32787;53.316;8.670;2023-04-24T04:26:14;10.70;85.60
46816;DHT22;32787;53.316;8.670;2023-04-24T04:28:39;10.60;85.50
46816;DHT22;32787;53.316;8.670;2023-04-24T04:31:06;10.70;85.50
46816;DHT22;32787;53.316;8.670;2023-04-24T04:33:33;10.70;85.40
46816;DHT22;32787;53.316;8.670;2023-04-24T04:35:59;10.70;85.50
46816;DHT22;32787;53.316;8.670;2023-04-24T04:38:25;10.70;85.50
46816;DHT22;32787;53.316;8.670;2023-04-24T04:40:55;10.80;85.50
46816;DHT22;32787;53.316;8.670;2023-04-24T04:43:24;10.90;85.20
46816;DHT22;32787;53.316;8.670;2023-04-24T04:45:50;10.90;84.90
46816;DHT22;32787;53.316;8.670;2023-04-24T04:48:17;10.80;84.90
46816;DHT22;32787;53.316;8.670;2023-04-24T04:50:43;10.80;84.90
46816;DHT22;32787;53.316;8.670;2023-04-24T04:53:08;10.90;84.40
46816;DHT22;32787;53.316;8.670;2023-04-24T04:55:34;10.80;84.40
46816;DHT22;32787;53.316;8.670;2023-04-24T04:58:00;10.80;84.00
46816;DHT22;32787;53.316;8.670;2023-04-24T05:00:26;10.90;84.00
46816;DHT22;32787;53.316;8.670;2023-04-24T05:02:52;11.00;84.20
46816;DHT22;32787;53.316;8.670;2023-04-24T05:05:18;11.00;84.00
46816;DHT22;32787;53.316;8.670;2023-04-24T05:07:44;10.90;84.00
46816;DHT22;32787;53.316;8.670;2023-04-24T05:10:10;10.90;84.00
46816;DHT22;32787;53.316;8.670;2023-04-24T05:12:36;10.90;83.90
46816;DHT22;32787;53.316;8.670;2023-04-24T05:15:02;11.10;83.80
46816;DHT22;32787;53.316;8.670;2023-04-24T05:17:28;11.00;83.70
46816;DHT22;32787;53.316;8.670;2023-04-24T05:19:54;11.00;83.60
46816;DHT22;32787;53.316;8.670;2023-04-24T05:22:19;10.90;83.70
46816;DHT22;32787;53.316;8.670;2023-04-24T05:24:47;11.00;83.90
46816;DHT22;32787;53.316;8.670;2023-04-24T05:27:13;11.00;83.60
46816;DHT22;32787;53.316;8.670;2023-04-24T05:29:39;11.00;83.80
46816;DHT22;32787;53.316;8.670;2023-04-24T05:32:05;11.10;83.40
46816;DHT22;32787;53.316;8.670;2023-04-24T05:34:31;11.10;83.40
46816;DHT22;32787;53.316;8.670;2023-04-24T05:36:56;11.10;83.60
46816;DHT22;32787;53.316;8.670;2023-04-24T05:39:22;11.10;83.40
46816;DHT22;32787;53.316;8.670;2023-04-24T05:41:50;11.10;83.40
46816;DHT22;32787;53.316;8.670;2023-04-24T05:44:16;11.10;83.60
46816;DHT22;32787;53.316;8.670;2023-04-24T05:46:41;11.10;83.70
46816;DHT22;32787;53.316;8.670;2023-04-24T05:49:07;11.10;83.90
46816;DHT22;32787;53.316;8.670;2023-04-24T05:51:33;11.20;83.70
46816;DHT22;32787;53.316;8.670;2023-04-24T05:53:58;11.30;83.30
46816;DHT22;32787;53.316;8.670;2023-04-24T05:56:24;11.50;83.30
46816;DHT22;32787;53.316;8.670;2023-04-24T05:58:49;11.40;82.70
46816;DHT22;32787;53.316;8.670;2023-04-24T06:01:15;11.40;82.70
46816;DHT22;32787;53.316;8.670;2023-04-24T06:03:41;11.40;82.30
46816;DHT22;32787;53.316;8.670;2023-04-24T06:06:07;11.40;82.70
46816;DHT22;32787;53.316;8.670;2023-04-24T06:08:34;11.30;82.50
46816;DHT22;32787;53.316;8.670;2023-04-24T06:11:00;11.30;82.20
46816;DHT22;32787;53.316;8.670;2023-04-24T06:13:25;11.40;82.50
46816;DHT22;32787;53.316;8.670;2023-04-24T06:15:52;11.50;82.30
46816;DHT22;32787;53.316;8.670;2023-04-24T06:18:17;11.60;81.70
46816;DHT22;32787;53.316;8.670;2023-04-24T06:20:43;11.80;81.80
46816;DHT22;32787;53.316;8.670;2023-04-24T06:23:08;11.80;81.50
46816;DHT22;32787;53.316;8.670;2023-04-24T06:25:34;11.80;81.90
46816;DHT22;32787;53.316;8.670;2023-04-24T06:28:00;11.90;81.50
46816;DHT22;32787;53.316;8.670;2023-04-24T06:30:26;11.90;81.50
46816;DHT22;32787;53.316;8.670;2023-04-24T06:32:53;12.00;81.30
46816;DHT22;32787;53.316;8.670;2023-04-24T06:35:19;12.00;80.80
46816;DHT22;32787;53.316;8.670;2023-04-24T06:37:45;12.10;80.70
46816;DHT22;32787;53.316;8.670;2023-04-24T06:40:11;12.10;80.70
46816;DHT22;32787;53.316;8.670;2023-04-24T06:42:37;12.10;80.30
46816;DHT22;32787;53.316;8.670;2023-04-24T06:45:02;12.00;80.60
46816;DHT22;32787;53.316;8.670;2023-04-24T06:47:29;11.90;80.40
46816;DHT22;32787;53.316;8.670;2023-04-24T06:49:54;11.90;80.40
46816;DHT22;32787;53.316;8.670;2023-04-24T06:52:20;11.80;80.50
46816;DHT22;32787;53.316;8.670;2023-04-24T06:54:46;11.80;81.00
46816;DHT22;32787;53.316;8.670;2023-04-24T06:57:11;11.80;80.90
46816;DHT22;32787;53.316;8.670;2023-04-24T06:59:37;11.90;80.80
46816;DHT22;32787;53.316;8.670;2023-04-24T07:02:03;11.90;81.00
46816;DHT22;32787;53.316;8.670;2023-04-24T07:04:30;11.80;80.70
46816;DHT22;32787;53.316;8.670;2023-04-24T07:06:56;11.80;81.40
46816;DHT22;32787;53.316;8.670;2023-04-24T07:09:24;11.60;81.10
46816;DHT22;32787;53.316;8.670;2023-04-24T07:11:53;11.70;81.70
46816;DHT22;32787;53.316;8.670;2023-04-24T07:14:20;11.80;81.50
46816;DHT22;32787;53.316;8.670;2023-04-24T07:16:46;11.80;81.40
46816;DHT22;32787;53.316;8.670;2023-04-24T07:19:12;11.80;81.30
46816;DHT22;32787;53.316;8.670;2023-04-24T07:21:38;11.70;82.00
46816;DHT22;32787;53.316;8.670;2023-04-24T07:24:04;11.80;81.50
46816;DHT22;32787;53.316;8.670;2023-04-24T07:26:30;11.80;81.40
46816;DHT22;32787;53.316;8.670;2023-04-24T07:28:57;11.80;81.20
46816;DHT22;32787;53.316;8.670;2023-04-24T07:31:23;11.80;81.50
46816;DHT22;32787;53.316;8.670;2023-04-24T07:33:48;11.80;81.60
46816;DHT22;32787;53.316;8.670;2023-04-24T07:36:15;11.90;81.00
46816;DHT22;32787;53.316;8.670;2023-04-24T07:38:46;12.00;80.80
46816;DHT22;32787;53.316;8.670;2023-04-24T07:41:13;12.10;80.60
46816;DHT22;32787;53.316;8.670;2023-04-24T07:43:39;12.10;80.90
46816;DHT22;32787;53.316;8.670;2023-04-24T07:46:05;12.20;80.50
46816;DHT22;32787;53.316;8.670;2023-04-24T07:48:31;12.20;80.10
46816;DHT22;32787;53.316;8.670;2023-04-24T07:50:57;12.20;79.80
46816;DHT22;32787;53.316;8.670;2023-04-24T07:53:22;12.30;80.00
46816;DHT22;32787;53.316;8.670;2023-04-24T07:55:48;12.20;80.30
46816;DHT22;32787;53.316;8.670;2023-04-24T07:58:14;12.20;80.70
46816;DHT22;32787;53.316;8.670;2023-04-24T08:00:39;12.50;80.50
46816;DHT22;32787;53.316;8.670;2023-04-24T08:03:05;12.40;79.50
46816;DHT22;32787;53.316;8.670;2023-04-24T08:05:31;12.50;79.30
46816;DHT22;32787;53.316;8.670;2023-04-24T08:07:56;12.50;79.30
46816;DHT22;32787;53.316;8.670;2023-04-24T08:10:23;12.50;78.80
46816;DHT22;32787;53.316;8.670;2023-04-24T08:12:48;12.50;78.90
46816;DHT22;32787;53.316;8.670;2023-04-24T08:15:14;12.50;78.70
46816;DHT22;32787;53.316;8.670;2023-04-24T08:17:40;12.30;79.30
46816;DHT22;32787;53.316;8.670;2023-04-24T08:20:06;12.30;79.50
46816;DHT22;32787;53.316;8.670;2023-04-24T08:22:35;12.40;80.00
46816;DHT22;32787;53.316;8.670;2023-04-24T08:25:01;12.50;78.90
46816;DHT22;32787;53.316;8.670;2023-04-24T08:27:27;12.70;78.50
46816;DHT22;32787;53.316;8.670;2023-04-24T08:29:53;12.80;77.90
46816;DHT22;32787;53.316;8.670;2023-04-24T08:32:19;12.70;77.40
46816;DHT22;32787;53.316;8.670;2023-04-24T08:34:45;12.50;78.10
46816;DHT22;32787;53.316;8.670;2023-04-24T08:37:11;12.50;78.40
46816;DHT22;32787;53.316;8.670;2023-04-24T08:39:37;12.50;78.00
46816;DHT22;32787;53.316;8.670;2023-04-24T08:42:04;12.50;78.60
46816;DHT22;32787;53.316;8.670;2023-04-24T08:44:33;12.60;77.90
46816;DHT22;32787;53.316;8.670;2023-04-24T08:47:01;12.60;77.60
46816;DHT22;32787;53.316;8.670;2023-04-24T08:49:28;12.40;77.40
46816;DHT22;32787;53.316;8.670;2023-04-24T08:51:54;12.30;77.20
46816;DHT22;32787;53.316;8.670;2023-04-24T08:54:20;12.30;78.00
46816;DHT22;32787;53.316;8.670;2023-04-24T08:56:48;12.30;78.00
46816;DHT22;32787;53.316;8.670;2023-04-24T08:59:15;12.30;77.40
46816;DHT22;32787;53.316;8.670;2023-04-24T09:01:41;12.10;77.80
46816;DHT22;32787;53.316;8.670;2023-04-24T09:04:08;12.30;78.20
46816;DHT22;32787;53.316;8.670;2023-04-24T09:06:38;12.20;78.00
46816;DHT22;32787;53.316;8.670;2023-04-24T09:09:04;12.00;78.10
46816;DHT22;32787;53.316;8.670;2023-04-24T09:11:31;11.90;78.90
46816;DHT22;32787;53.316;8.670;2023-04-24T09:13:58;12.10;78.70
46816;DHT22;32787;53.316;8.670;2023-04-24T09:16:26;12.10;78.00
46816;DHT22;32787;53.316;8.670;2023-04-24T09:18:52;12.20;77.80
46816;DHT22;32787;53.316;8.670;2023-04-24T09:21:17;12.10;78.50
46816;DHT22;32787;53.316;8.670;2023-04-24T09:23:45;12.00;78.10
46816;DHT22;32787;53.316;8.670;2023-04-24T09:26:11;12.00;79.40
46816;DHT22;32787;53.316;8.670;2023-04-24T09:28:38;11.90;78.90
46816;DHT22;32787;53.316;8.670;2023-04-24T09:31:12;11.90;79.10
46816;DHT22;32787;53.316;8.670;2023-04-24T09:33:39;12.00;79.30
46816;DHT22;32787;53.316;8.670;2023-04-24T09:36:05;12.10;78.80
46816;DHT22;32787;53.316;8.670;2023-04-24T09:38:36;12.00;78.50
46816;DHT22;32787;53.316;8.670;2023-04-24T09:41:03;12.00;78.50
46816;DHT22;32787;53.316;8.670;2023-04-24T09:43:30;12.00;78.30
46816;DHT22;32787;53.316;8.670;2023-04-24T09:45:57;11.80;79.80
46816;DHT22;32787;53.316;8.670;2023-04-24T09:48:31;11.60;80.80
46816;DHT22;32787;53.316;8.670;2023-04-24T09:50:57;11.50;81.80
46816;DHT22;32787;53.316;8.670;2023-04-24T09:53:26;11.40;82.90
46816;DHT22;32787;53.316;8.670;2023-04-24T09:55:52;11.50;83.40
46816;DHT22;32787;53.316;8.670;2023-04-24T09:58:25;11.50;83.10
46816;DHT22;32787;53.316;8.670;2023-04-24T10:00:55;11.60;83.60
46816;DHT22;32787;53.316;8.670;2023-04-24T10:03:24;11.50;82.90
46816;DHT22;32787;53.316;8.670;2023-04-24T10:05:51;11.80;83.00
46816;DHT22;32787;53.316;8.670;2023-04-24T10:08:18;11.90;82.70
46816;DHT22;32787;53.316;8.670;2023-04-24T10:10:46;12.30;82.70
46816;DHT22;32787;53.316;8.670;2023-04-24T10:13:14;12.60;80.80
46816;DHT22;32787;53.316;8.670;2023-04-24T10:15:41;12.70;79.90
46816;DHT22;32787;53.316;8.670;2023-04-24T10:18:08;12.60;79.80
46816;DHT22;32787;53.316;8.670;2023-04-24T10:20:36;12.70;79.00
46816;DHT22;32787;53.316;8.670;2023-04-24T10:23:02;12.90;78.80
46816;DHT22;32787;53.316;8.670;2023-04-24T10:25:33;13.10;77.50
46816;DHT22;32787;53.316;8.670;2023-04-24T10:27:59;13.10;77.90
46816;DHT22;32787;53.316;8.670;2023-04-24T10:30:27;13.30;77.70
46816;DHT22;32787;53.316;8.670;2023-04-24T10:32:53;13.30;76.60
46816;DHT22;32787;53.316;8.670;2023-04-24T10:35:19;13.30;78.60
46816;DHT22;32787;53.316;8.670;2023-04-24T10:37:58;13.20;79.40
46816;DHT22;32787;53.316;8.670;2023-04-24T10:40:31;12.80;80.30
46816;DHT22;32787;53.316;8.670;2023-04-24T10:42:57;12.50;80.80
46816;DHT22;32787;53.316;8.670;2023-04-24T10:45:23;12.30;82.00
46816;DHT22;32787;53.316;8.670;2023-04-24T10:48:05;12.30;82.80
46816;DHT22;32787;53.316;8.670;2023-04-24T10:50:51;12.10;83.40
46816;DHT22;32787;53.316;8.670;2023-04-24T10:53:27;11.60;83.40
46816;DHT22;32787;53.316;8.670;2023-04-24T10:56:06;11.40;84.30
46816;DHT22;32787;53.316;8.670;2023-04-24T10:58:40;11.20;83.80
46816;DHT22;32787;53.316;8.670;2023-04-24T11:01:08;11.00;85.10
46816;DHT22;32787;53.316;8.670;2023-04-24T11:03:35;10.90;85.70
46816;DHT22;32787;53.316;8.670;2023-04-24T11:06:08;11.00;86.60
46816;DHT22;32787;53.316;8.670;2023-04-24T11:08:44;11.00;86.90
46816;DHT22;32787;53.316;8.670;2023-04-24T11:11:15;11.10;87.10
46816;DHT22;32787;53.316;8.670;2023-04-24T11:19:17;11.10;87.50
46816;DHT22;32787;53.316;8.670;2023-04-24T11:24:32;11.00;87.50
46816;DHT22;32787;53.316;8.670;2023-04-24T11:29:46;10.80;88.00
46816;DHT22;32787;53.316;8.670;2023-04-24T11:34:54;10.70;88.80
46816;DHT22;32787;53.316;8.670;2023-04-24T11:37:22;10.60;89.60
46816;DHT22;32787;53.316;8.670;2023-04-24T11:39:57;10.60;90.00
46816;DHT22;32787;53.316;8.670;2023-04-24T11:42:24;10.60;90.00
46816;DHT22;32787;53.316;8.670;2023-04-24T11:44:52;10.80;90.10
46816;DHT22;32787;53.316;8.670;2023-04-24T11:47:18;10.80;89.80
46816;DHT22;32787;53.316;8.670;2023-04-24T11:49:43;10.60;89.50
46816;DHT22;32787;53.316;8.670;2023-04-24T11:52:09;10.70;90.30
46816;DHT22;32787;53.316;8.670;2023-04-24T11:54:36;10.60;90.30
46816;DHT22;32787;53.316;8.670;2023-04-24T11:57:05;10.70;91.00
46816;DHT22;32787;53.316;8.670;2023-04-24T11:59:36;10.90;91.10
46816;DHT22;32787;53.316;8.670;2023-04-24T12:02:02;11.00;91.00
46816;DHT22;32787;53.316;8.670;2023-04-24T12:04:38;10.90;90.60
46816;DHT22;32787;53.316;8.670;2023-04-24T12:07:04;11.00;90.90
46816;DHT22;32787;53.316;8.670;2023-04-24T12:09:47;11.10;90.20
46816;DHT22;32787;53.316;8.670;2023-04-24T12:12:15;10.90;90.00
46816;DHT22;32787;53.316;8.670;2023-04-24T12:14:48;10.90;90.00
46816;DHT22;32787;53.316;8.670;2023-04-24T12:17:16;10.80;90.40
46816;DHT22;32787;53.316;8.670;2023-04-24T12:19:48;10.70;90.70
46816;DHT22;32787;53.316;8.670;2023-04-24T12:22:14;10.60;90.70
46816;DHT22;32787;53.316;8.670;2023-04-24T12:25:16;10.60;90.70
46816;DHT22;32787;53.316;8.670;2023-04-24T12:27:43;10.60;90.30
46816;DHT22;32787;53.316;8.670;2023-04-24T12:30:18;10.50;90.10
46816;DHT22;32787;53.316;8.670;2023-04-24T12:32:47;10.60;90.30
46816;DHT22;32787;53.316;8.670;2023-04-24T12:35:13;10.50;90.10
46816;DHT22;32787;53.316;8.670;2023-04-24T12:37:42;10.40;90.70
46816;DHT22;32787;53.316;8.670;2023-04-24T12:40:10;10.50;91.20
46816;DHT22;32787;53.316;8.670;2023-04-24T12:42:45;10.50;90.90
46816;DHT22;32787;53.316;8.670;2023-04-24T12:45:11;10.60;90.60
46816;DHT22;32787;53.316;8.670;2023-04-24T12:47:41;10.50;90.60
46816;DHT22;32787;53.316;8.670;2023-04-24T12:50:11;10.40;91.10
46816;DHT22;32787;53.316;8.670;2023-04-24T12:52:37;10.30;91.50
46816;DHT22;32787;53.316;8.670;2023-04-24T12:55:03;10.40;91.50
46816;DHT22;32787;53.316;8.670;2023-04-24T12:57:30;10.40;91.40
46816;DHT22;32787;53.316;8.670;2023-04-24T12:59:57;10.20;91.90
46816;DHT22;32787;53.316;8.670;2023-04-24T13:02:24;10.10;92.10
46816;DHT22;32787;53.316;8.670;2023-04-24T13:04:50;10.10;91.70
46816;DHT22;32787;53.316;8.670;2023-04-24T13:07:16;9.90;93.00
46816;DHT22;32787;53.316;8.670;2023-04-24T13:09:43;9.70;93.70
46816;DHT22;32787;53.316;8.670;2023-04-24T13:12:09;9.60;94.10
46816;DHT22;32787;53.316;8.670;2023-04-24T13:14:35;9.70;94.30
46816;DHT22;32787;53.316;8.670;2023-04-24T13:17:01;9.70;94.20
46816;DHT22;32787;53.316;8.670;2023-04-24T13:19:27;9.50;94.10
46816;DHT22;32787;53.316;8.670;2023-04-24T13:21:56;9.40;94.10
46816;DHT22;32787;53.316;8.670;2023-04-24T13:24:23;9.30;94.20
46816;DHT22;32787;53.316;8.670;2023-04-24T13:26:52;9.30;94.20
46816;DHT22;32787;53.316;8.670;2023-04-24T13:29:18;9.20;94.30
46816;DHT22;32787;53.316;8.670;2023-04-24T13:31:44;9.10;94.30
46816;DHT22;32787;53.316;8.670;2023-04-24T13:34:10;9.10;94.30
46816;DHT22;32787;53.316;8.670;2023-04-24T13:36:35;9.00;94.30
46816;DHT22;32787;53.316;8.670;2023-04-24T13:39:02;9.10;94.20
46816;DHT22;32787;53.316;8.670;2023-04-24T13:41:30;9.00;94.20
46816;DHT22;32787;53.316;8.670;2023-04-24T13:43:56;8.90;94.00
46816;DHT22;32787;53.316;8.670;2023-04-24T13:46:21;8.80;94.00
46816;DHT22;32787;53.316;8.670;2023-04-24T13:48:47;8.70;94.10
46816;DHT22;32787;53.316;8.670;2023-04-24T13:51:13;8.80;94.20
46816;DHT22;32787;53.316;8.670;2023-04-24T13:53:38;8.80;94.40
46816;DHT22;32787;53.316;8.670;2023-04-24T13:56:04;8.80;94.50
46816;DHT22;32787;53.316;8.670;2023-04-24T13:58:31;8.70;94.40
46816;DHT22;32787;53.316;8.670;2023-04-24T14:00:57;8.70;94.50
46816;DHT22;32787;53.316;8.670;2023-04-24T14:03:23;8.70;94.50
46816;DHT22;32787;53.316;8.670;2023-04-24T14:05:49;8.60;94.70
46816;DHT22;32787;53.316;8.670;2023-04-24T14:08:15;8.60;94.70
46816;DHT22;32787;53.316;8.670;2023-04-24T14:10:40;8.50;94.80
46816;DHT22;32787;53.316;8.670;2023-04-24T14:13:06;8.50;94.80
46816;DHT22;32787;53.316;8.670;2023-04-24T14:15:32;8.60;94.80
46816;DHT22;32787;53.316;8.670;2023-04-24T14:17:57;8.60;94.90
46816;DHT22;32787;53.316;8.670;2023-04-24T14:20:23;8.70;95.00
46816;DHT22;32787;53.316;8.670;2023-04-24T14:22:49;8.60;95.00
46816;DHT22;32787;53.316;8.670;2023-04-24T14:25:14;8.70;95.00
46816;DHT22;32787;53.316;8.670;2023-04-24T14:27:40;8.60;95.00
46816;DHT22;32787;53.316;8.670;2023-04-24T14:30:07;8.70;95.00
46816;DHT22;32787;53.316;8.670;2023-04-24T14:32:32;8.70;95.00
46816;DHT22;32787;53.316;8.670;2023-04-24T14:34:58;8.80;94.90
46816;DHT22;32787;53.316;8.670;2023-04-24T14:37:24;8.70;94.70
46816;DHT22;32787;53.316;8.670;2023-04-24T14:39:49;8.70;94.70
46816;DHT22;32787;53.316;8.670;2023-04-24T14:42:15;8.70;94.60
46816;DHT22;32787;53.316;8.670;2023-04-24T14:44:42;8.60;94.60
46816;DHT22;32787;53.316;8.670;2023-04-24T14:47:08;8.50;94.30
46816;DHT22;32787;53.316;8.670;2023-04-24T14:49:33;8.50;94.30
46816;DHT22;32787;53.316;8.670;2023-04-24T14:51:59;8.50;94.30
46816;DHT22;32787;53.316;8.670;2023-04-24T14:54:25;8.50;94.40
46816;DHT22;32787;53.316;8.670;2023-04-24T14:56:50;8.50;94.40
46816;DHT22;32787;53.316;8.670;2023-04-24T14:59:16;8.60;94.40
46816;DHT22;32787;53.316;8.670;2023-04-24T15:01:42;8.60;94.30
46816;DHT22;32787;53.316;8.670;2023-04-24T15:04:07;8.50;94.40
46816;DHT22;32787;53.316;8.670;2023-04-24T15:06:33;8.60;94.50
46816;DHT22;32787;53.316;8.670;2023-04-24T15:08:58;8.50;94.50
46816;DHT22;32787;53.316;8.670;2023-04-24T15:11:24;8.60;94.30
46816;DHT22;32787;53.316;8.670;2023-04-24T15:13:50;8.70;94.30
46816;DHT22;32787;53.316;8.670;2023-04-24T15:16:15;8.80;94.30
46816;DHT22;32787;53.316;8.670;2023-04-24T15:18:41;8.90;94.10
46816;DHT22;32787;53.316;8.670;2023-04-24T15:21:06;8.80;93.90
46816;DHT22;32787;53.316;8.670;2023-04-24T15:23:32;8.80;93.80
46816;DHT22;32787;53.316;8.670;2023-04-24T15:25:57;8.80;93.80
46816;DHT22;32787;53.316;8.670;2023-04-24T15:28:24;8.80;93.70
46816;DHT22;32787;53.316;8.670;2023-04-24T15:30:49;8.90;93.60
46816;DHT22;32787;53.316;8.670;2023-04-24T15:33:15;8.90;93.40
46816;DHT22;32787;53.316;8.670;2023-04-24T15:35:40;8.90;93.50
46816;DHT22;32787;53.316;8.670;2023-04-24T15:38:06;8.90;93.20
46816;DHT22;32787;53.316;8.670;2023-04-24T15:40:31;8.90;93.30
46816;DHT22;32787;53.316;8.670;2023-04-24T15:42:57;8.90;93.10